Time;durP1;ratioP1;P1;durP2;ratioP2;P2;SDS_P1;SDS_P2;PMS_P1;PMS_P2;Temp;Humidity;BMP_temperature;BMP_pressure;BME280_temperature;BME280_humidity;BME280_pressure;Samples;Min_cycle;Max_cycle;Signal;HPM_P1;HPM_P2
2021/07/14 00:00:42;;;;;;;16.80;9.27;;;;;;;17.89;100.00;101314.69;5072130;28;20044;-58
2021/07/14 00:03:09;;;;;;;18.80;10.27;;;;;;;17.88;100.00;101304.56;5071497;28;20127;-60
2021/07/14 00:05:38;;;;;;;15.07;9.15;;;;;;;17.89;100.00;101309.03;5070838;28;20465;-58
2021/07/14 00:08:08;;;;;;;15.88;10.25;;;;;;;17.89;100.00;101306.22;5071612;28;20040;-57
2021/07/14 00:10:36;;;;;;;16.55;9.15;;;;;;;17.87;100.00;101306.56;5071819;28;20079;-55
2021/07/14 00:13:11;;;;;;;18.38;9.65;;;;;;;17.86;100.00;101313.38;5072150;28;20039;-57
2021/07/14 00:23:58;;;;;;;23.65;11.77;;;;;;;17.73;100.00;101316.41;5071171;28;20074;-54
2021/07/14 00:26:26;;;;;;;22.05;11.15;;;;;;;17.72;100.00;101326.88;5071666;28;20072;-57
2021/07/14 00:28:55;;;;;;;20.08;10.73;;;;;;;17.70;100.00;101322.72;5071568;28;20076;-57
2021/07/14 00:31:23;;;;;;;20.83;11.55;;;;;;;17.68;100.00;101325.03;5070956;28;20489;-56
2021/07/14 00:33:51;;;;;;;22.95;11.43;;;;;;;17.66;100.00;101338.66;5071030;28;20049;-55
2021/07/14 00:36:19;;;;;;;23.02;11.45;;;;;;;17.64;100.00;101333.34;5070316;28;20064;-57
2021/07/14 00:38:47;;;;;;;19.42;11.13;;;;;;;17.63;100.00;101328.00;5071348;28;20071;-58
2021/07/14 00:41:15;;;;;;;22.95;12.30;;;;;;;17.61;100.00;101321.88;5071258;28;20134;-60
2021/07/14 00:43:43;;;;;;;23.55;12.65;;;;;;;17.58;100.00;101322.56;5070929;28;20051;-57
2021/07/14 00:46:23;;;;;;;18.23;11.80;;;;;;;17.56;100.00;101322.91;5071219;28;20371;-60
2021/07/14 00:48:52;;;;;;;22.42;13.48;;;;;;;17.53;100.00;101317.91;5071520;28;20052;-55
2021/07/14 00:51:21;;;;;;;26.02;13.40;;;;;;;17.51;100.00;101309.78;5070790;28;20551;-57
2021/07/14 00:53:49;;;;;;;24.52;14.73;;;;;;;17.52;100.00;101308.63;5070874;28;20072;-54
2021/07/14 00:56:17;;;;;;;22.95;13.05;;;;;;;17.50;100.00;101319.41;5071194;28;20148;-56
2021/07/14 00:58:44;;;;;;;25.08;14.57;;;;;;;17.51;100.00;101317.41;5070747;28;20048;-53
2021/07/14 01:01:13;;;;;;;25.85;13.93;;;;;;;17.50;100.00;101319.41;5070999;28;20132;-55
2021/07/14 01:03:49;;;;;;;21.23;12.27;;;;;;;17.49;100.00;101306.47;5071169;28;20075;-54
2021/07/14 01:06:22;;;;;;;19.55;12.10;;;;;;;17.50;100.00;101308.13;5066808;28;20045;-56
2021/07/14 01:08:58;;;;;;;21.80;14.02;;;;;;;17.49;100.00;101312.09;5068587;28;20493;-53
2021/07/14 01:11:31;;;;;;;20.77;13.02;;;;;;;17.49;100.00;101311.28;5066831;28;20047;-57
2021/07/14 01:14:06;;;;;;;21.27;12.35;;;;;;;17.49;100.00;101309.28;5068165;28;20076;-53
2021/07/14 01:16:41;;;;;;;22.50;12.20;;;;;;;17.48;100.00;101315.25;5067214;28;20120;-59
2021/07/14 01:19:36;;;;;;;20.67;12.65;;;;;;;17.45;100.00;101313.94;5066135;28;20563;-56
2021/07/14 01:22:13;;;;;;;19.17;12.45;;;;;;;17.43;100.00;101312.59;5070145;28;20036;-58
2021/07/14 01:24:49;;;;;;;20.80;12.35;;;;;;;17.44;100.00;101312.28;5060006;28;20136;-58
2021/07/14 01:27:19;;;;;;;21.05;12.32;;;;;;;17.44;100.00;101315.09;5070133;28;20087;-58
2021/07/14 01:29:50;;;;;;;18.45;11.90;;;;;;;17.44;100.00;101315.09;5069536;28;20045;-55
2021/07/14 01:32:21;;;;;;;18.02;12.18;;;;;;;17.44;100.00;101309.47;5070902;28;20581;-59
2021/07/14 01:34:52;;;;;;;22.13;12.30;;;;;;;17.45;100.00;101311.13;5070222;28;20048;-54
2021/07/14 01:37:23;;;;;;;21.45;11.70;;;;;;;17.45;100.00;101316.75;5067471;28;20072;-54
2021/07/14 01:39:52;;;;;;;15.38;10.23;;;;;;;17.44;100.00;101315.09;5070665;28;20102;-58
2021/07/14 01:42:25;;;;;;;15.75;10.65;;;;;;;17.45;100.00;101322.41;5070215;28;20040;-54
2021/07/14 01:44:55;;;;;;;14.65;9.63;;;;;;;17.45;100.00;101315.94;5070526;28;20139;-59
2021/07/14 01:47:26;;;;;;;13.65;10.45;;;;;;;17.44;100.00;101303.81;5070058;28;20123;-57
2021/07/14 01:49:57;;;;;;;15.13;10.30;;;;;;;17.44;100.00;101306.63;5070227;28;20040;-56
2021/07/14 01:52:27;;;;;;;14.40;9.48;;;;;;;17.44;100.00;101315.09;5070275;28;20505;-57
2021/07/14 01:54:57;;;;;;;17.80;10.48;;;;;;;17.44;100.00;101312.28;5069679;28;20139;-56
2021/07/14 01:57:29;;;;;;;22.08;12.60;;;;;;;17.45;100.00;101315.94;5070511;28;20041;-55
2021/07/14 01:59:58;;;;;;;17.10;10.50;;;;;;;17.44;100.00;101311.44;5069047;28;20076;-57
2021/07/14 02:02:32;;;;;;;24.38;13.05;;;;;;;17.42;100.00;101323.06;5069994;28;20056;-57
2021/07/14 02:05:02;;;;;;;16.60;11.52;;;;;;;17.45;100.00;101321.56;5066755;28;20084;-54
2021/07/14 02:07:31;;;;;;;15.80;10.77;;;;;;;17.45;100.00;101321.56;5070653;28;20045;-57
2021/07/14 02:09:59;;;;;;;17.88;12.35;;;;;;;17.45;100.00;101318.75;5069191;28;20135;-58
2021/07/14 02:12:30;;;;;;;20.17;12.95;;;;;;;17.43;100.00;101321.06;5070389;28;20067;-58
2021/07/14 02:15:02;;;;;;;23.40;14.13;;;;;;;17.42;100.00;101310.94;5069741;28;20481;-55
2021/07/14 02:17:34;;;;;;;21.17;13.27;;;;;;;17.41;100.00;101312.13;5070660;28;20033;-58
2021/07/14 02:20:07;;;;;;;19.35;13.70;;;;;;;17.40;100.00;101314.09;5070345;28;20052;-58
2021/07/14 02:22:35;;;;;;;19.95;13.95;;;;;;;17.40;100.00;101314.09;5069798;28;20044;-58
2021/07/14 02:25:04;;;;;;;21.17;13.82;;;;;;;17.39;100.00;101312.44;5067609;28;20079;-58
2021/07/14 02:27:33;;;;;;;19.85;13.57;;;;;;;17.38;100.00;101296.72;5068464;28;20041;-56
2021/07/14 02:30:01;;;;;;;20.88;13.63;;;;;;;17.37;100.00;101299.88;5069873;28;20056;-58
2021/07/14 02:32:29;;;;;;;17.60;12.20;;;;;;;17.36;100.00;101301.84;5070367;28;20047;-58
2021/07/14 02:34:57;;;;;;;20.92;12.77;;;;;;;17.35;100.00;101294.56;5070298;28;20131;-53
2021/07/14 02:37:31;;;;;;;23.38;13.80;;;;;;;17.36;100.00;101295.38;5069530;28;20050;-57
2021/07/14 02:40:01;;;;;;;23.77;15.20;;;;;;;17.36;100.00;101296.22;5074260;28;20056;-56
2021/07/14 02:42:31;;;;;;;20.80;13.07;;;;;;;17.36;100.00;101301.03;5073848;28;20072;-52
2021/07/14 02:45:05;;;;;;;18.33;13.30;;;;;;;17.35;100.00;101297.38;5062463;28;20454;-56
2021/07/14 02:47:36;;;;;;;20.95;14.18;;;;;;;17.34;100.00;101292.88;5063631;28;20055;-53
2021/07/14 02:50:07;;;;;;;25.02;14.75;;;;;;;17.34;100.00;101292.88;5072853;28;20044;-57
2021/07/14 02:52:37;;;;;;;25.45;15.30;;;;;;;17.33;100.00;101298.88;5073490;28;20112;-55
2021/07/14 02:55:07;;;;;;;22.08;12.68;;;;;;;17.35;100.00;101294.56;5073641;28;20076;-55
2021/07/14 02:57:38;;;;;;;23.50;14.35;;;;;;;17.35;100.00;101291.72;5071602;28;20400;-55
2021/07/14 03:00:11;;;;;;;23.45;14.57;;;;;;;17.35;100.00;101288.91;5071169;28;20075;-54
2021/07/14 03:02:41;;;;;;;20.98;14.68;;;;;;;17.36;100.00;101290.56;5073502;28;20039;-56
2021/07/14 03:05:10;;;;;;;24.33;13.77;;;;;;;17.37;100.00;101289.41;5072459;28;20068;-54
2021/07/14 03:07:38;;;;;;;23.95;14.18;;;;;;;17.36;100.00;101279.28;5073445;28;20132;-53
2021/07/14 03:10:08;;;;;;;21.92;14.25;;;;;;;17.37;100.00;101285.75;5073235;28;20040;-53
2021/07/14 03:12:37;;;;;;;20.10;12.65;;;;;;;17.36;100.00;101289.75;5073295;28;20055;-55
2021/07/14 03:15:10;;;;;;;21.80;12.18;;;;;;;17.35;100.00;101286.09;5073140;28;20439;-50
2021/07/14 03:17:40;;;;;;;21.08;12.77;;;;;;;17.34;100.00;101286.41;5073034;28;20503;-52
2021/07/14 03:20:10;;;;;;;22.35;14.15;;;;;;;17.34;100.00;101286.41;5072654;28;20135;-56
2021/07/14 03:22:44;;;;;;;19.85;13.35;;;;;;;17.34;100.00;101284.44;5072595;28;20143;-53
2021/07/14 03:25:13;;;;;;;24.95;15.25;;;;;;;17.33;100.00;101284.75;5072448;28;20467;-54
2021/07/14 03:27:45;;;;;;;23.02;14.30;;;;;;;17.34;100.00;101283.59;5072802;28;20516;-52
2021/07/14 03:30:16;;;;;;;23.80;14.68;;;;;;;17.32;100.00;101283.94;5068051;28;20506;-55
2021/07/14 03:32:44;;;;;;;20.73;14.02;;;;;;;17.33;100.00;101285.59;5072487;28;20143;-59
2021/07/14 03:35:13;;;;;;;21.88;14.15;;;;;;;17.34;100.00;101290.06;5072823;28;20052;-56
2021/07/14 03:37:44;;;;;;;18.08;13.07;;;;;;;17.33;100.00;101285.59;5072646;28;20135;-55
2021/07/14 03:40:14;;;;;;;18.65;12.50;;;;;;;17.32;100.00;101281.13;5072122;28;20072;-57
2021/07/14 03:42:43;;;;;;;18.80;12.73;;;;;;;17.34;100.00;101281.59;5071517;28;20404;-55
2021/07/14 03:45:12;;;;;;;21.08;13.82;;;;;;;17.35;100.00;101288.09;5072501;28;20496;-60
2021/07/14 03:47:42;;;;;;;20.73;12.85;;;;;;;17.34;100.00;101292.88;5071992;28;20105;-54
2021/07/14 03:50:12;;;;;;;16.75;12.10;;;;;;;17.35;100.00;101294.56;5072229;28;20111;-54
2021/07/14 03:52:40;;;;;;;19.38;12.90;;;;;;;17.35;100.00;101294.56;5072345;28;20068;-57
2021/07/14 03:55:11;;;;;;;19.45;12.93;;;;;;;17.36;100.00;101290.56;5071509;28;20131;-54
2021/07/14 03:57:39;;;;;;;18.63;12.80;;;;;;;17.36;100.00;101289.75;5071760;28;20476;-56
2021/07/14 04:00:08;;;;;;;20.58;13.10;;;;;;;17.38;100.00;101284.59;5072245;28;20067;-55
2021/07/14 04:02:39;;;;;;;16.52;11.55;;;;;;;17.37;100.00;101275.31;5072000;28;20045;-57
2021/07/14 04:05:08;;;;;;;21.02;13.85;;;;;;;17.38;100.00;101271.31;5061491;28;20398;-52
2021/07/14 04:07:41;;;;;;;19.10;12.82;;;;;;;17.38;100.00;101271.31;5070972;28;20374;-57
2021/07/14 04:10:10;;;;;;;16.60;11.40;;;;;;;17.37;100.00;101271.66;5071962;28;20048;-55
2021/07/14 04:12:38;;;;;;;17.63;12.40;;;;;;;17.38;100.00;101267.66;5071304;28;20106;-59
2021/07/14 04:15:07;;;;;;;17.40;12.45;;;;;;;17.38;100.00;101271.31;5071252;28;20083;-57
2021/07/14 04:17:35;;;;;;;16.33;11.43;;;;;;;17.38;100.00;101279.78;5071265;28;20062;-52
2021/07/14 04:20:05;;;;;;;16.90;12.25;;;;;;;17.40;100.00;101276.59;5071677;28;20376;-58
2021/07/14 04:22:35;;;;;;;17.17;11.88;;;;;;;17.39;100.00;101267.31;5071141;28;20044;-51
2021/07/14 04:25:04;;;;;;;16.10;11.10;;;;;;;17.42;100.00;101272.28;5071291;28;20545;-53
2021/07/14 04:27:32;;;;;;;15.77;10.98;;;;;;;17.44;100.00;101274.78;5071494;28;20412;-51
2021/07/14 04:29:59;;;;;;;16.00;12.32;;;;;;;17.44;100.00;101261.50;5071056;28;20040;-56
2021/07/14 04:32:27;;;;;;;18.42;11.27;;;;;;;17.46;100.00;101261.16;5071275;28;20080;-51
2021/07/14 04:34:55;;;;;;;16.58;11.57;;;;;;;17.45;100.00;101263.16;5067714;28;20567;-52
2021/07/14 04:37:23;;;;;;;14.88;10.70;;;;;;;17.47;100.00;101274.94;5070700;28;20052;-50
2021/07/14 04:39:52;;;;;;;14.20;10.80;;;;;;;17.46;100.00;101270.44;5071515;28;20078;-55
2021/07/14 04:42:20;;;;;;;15.35;11.52;;;;;;;17.48;100.00;101259.66;5069694;28;20041;-57
2021/07/14 04:44:52;;;;;;;16.55;10.68;;;;;;;17.49;100.00;101266.97;5070347;28;20128;-50
2021/07/14 04:47:20;;;;;;;16.10;10.80;;;;;;;17.51;100.00;101267.47;5071451;28;20049;-53
2021/07/14 04:49:48;;;;;;;17.90;12.52;;;;;;;17.52;100.00;101271.94;5069401;28;20075;-58
2021/07/14 04:52:16;;;;;;;16.52;10.95;;;;;;;17.51;100.00;101270.28;5071410;28;20135;-55
2021/07/14 04:54:44;;;;;;;16.48;12.15;;;;;;;17.55;100.00;101270.44;5071011;28;20411;-52
2021/07/14 04:57:13;;;;;;;15.77;11.55;;;;;;;17.56;100.00;101266.47;5070620;28;20072;-59
2021/07/14 04:59:41;;;;;;;15.05;11.43;;;;;;;17.58;100.00;101259.28;5070532;28;20072;-54
2021/07/14 05:02:09;;;;;;;14.25;10.73;;;;;;;17.60;100.00;101263.75;5070054;28;20127;-59
2021/07/14 05:04:36;;;;;;;14.65;9.93;;;;;;;17.62;100.00;101265.09;5058592;28;20051;-53
2021/07/14 05:07:05;;;;;;;18.05;12.07;;;;;;;17.64;100.00;101268.44;5070965;28;20420;-53
2021/07/14 05:09:33;;;;;;;15.88;10.40;;;;;;;17.64;100.00;101265.63;5070928;28;20040;-51
2021/07/14 05:12:00;;;;;;;15.50;11.48;;;;;;;17.64;100.00;101257.16;5070520;28;20041;-54
2021/07/14 05:14:29;;;;;;;16.98;9.90;;;;;;;17.67;100.00;101261.28;5071232;28;20131;-52
2021/07/14 05:16:57;;;;;;;16.30;10.18;;;;;;;17.69;100.00;101258.97;5069836;28;20045;-51
2021/07/14 05:19:25;;;;;;;17.63;11.40;;;;;;;17.71;100.00;101270.75;5068810;28;20041;-51
2021/07/14 05:21:53;;;;;;;14.68;10.77;;;;;;;17.71;100.00;101268.75;5070475;28;20490;-55
2021/07/14 05:24:21;;;;;;;14.68;10.13;;;;;;;17.74;100.00;101272.91;5069516;28;20131;-53
2021/07/14 05:26:48;;;;;;;17.00;10.68;;;;;;;17.74;100.00;101272.91;5069231;28;20450;-54
2021/07/14 05:29:17;;;;;;;14.30;9.38;;;;;;;17.75;100.00;101283.03;5070742;28;20532;-54
2021/07/14 05:31:46;;;;;;;13.82;9.50;;;;;;;17.75;100.00;101283.03;5070174;28;20128;-51
2021/07/14 05:34:14;;;;;;;17.10;9.45;;;;;;;17.77;100.00;101283.53;5070833;28;20048;-52
2021/07/14 05:36:42;;;;;;;17.10;11.02;;;;;;;17.78;100.00;101294.47;5070769;28;20074;-53
2021/07/14 05:39:10;;;;;;;18.58;10.90;;;;;;;17.76;100.00;101284.69;5069866;28;20041;-55
2021/07/14 05:41:38;;;;;;;15.60;10.35;;;;;;;17.76;100.00;101284.69;5070825;28;20079;-53
2021/07/14 05:44:05;;;;;;;18.92;10.43;;;;;;;17.77;100.00;101283.53;5071093;28;20053;-51
2021/07/14 05:46:34;;;;;;;19.20;11.27;;;;;;;17.78;100.00;101288.00;5070310;28;20123;-56
2021/07/14 05:49:03;;;;;;;17.27;10.80;;;;;;;17.78;100.00;101290.81;5070708;28;20135;-52
2021/07/14 05:51:32;;;;;;;18.90;11.48;;;;;;;17.78;100.00;101291.66;5070360;28;20070;-54
2021/07/14 05:54:00;;;;;;;17.65;11.27;;;;;;;17.80;100.00;101297.75;5070198;28;20040;-55
2021/07/14 05:56:28;;;;;;;20.33;11.32;;;;;;;17.80;100.00;101297.75;5070186;28;20090;-54
2021/07/14 05:58:56;;;;;;;16.65;10.35;;;;;;;17.81;100.00;101304.25;5070632;28;20586;-52
2021/07/14 06:01:23;;;;;;;21.95;12.25;;;;;;;17.82;100.00;101300.25;5069964;28;20045;-52
2021/07/14 06:03:51;;;;;;;20.45;11.45;;;;;;;17.81;100.00;101298.59;5070518;28;20056;-57
2021/07/14 06:06:20;;;;;;;20.95;12.07;;;;;;;17.80;100.00;101297.75;5070685;28;20478;-54
2021/07/14 06:08:48;;;;;;;23.30;12.52;;;;;;;17.81;100.00;101304.25;5070112;28;20076;-51
2021/07/14 06:11:16;;;;;;;21.40;11.82;;;;;;;17.78;100.00;101297.31;5069689;28;20139;-51
2021/07/14 06:13:44;;;;;;;25.77;13.10;;;;;;;17.77;100.00;101306.09;5070353;28;20151;-54
2021/07/14 06:16:12;;;;;;;21.73;12.32;;;;;;;17.76;100.00;101305.28;5074221;28;20045;-54
2021/07/14 06:18:40;;;;;;;21.58;11.95;;;;;;;17.75;100.00;101302.78;5073879;28;20045;-52
2021/07/14 06:21:08;;;;;;;20.80;11.35;;;;;;;17.75;100.00;101303.63;5073732;28;20170;-50
2021/07/14 06:23:37;;;;;;;21.83;11.88;;;;;;;17.76;100.00;101298.81;5072893;28;20076;-56
2021/07/14 06:26:05;;;;;;;22.42;12.15;;;;;;;17.75;100.00;101302.78;5069291;28;20049;-52
2021/07/14 06:28:33;;;;;;;20.75;12.18;;;;;;;17.74;100.00;101295.47;5073229;28;20036;-56
2021/07/14 06:31:04;;;;;;;17.05;10.35;;;;;;;17.76;100.00;101298.81;5073898;28;20053;-53
2021/07/14 06:33:34;;;;;;;19.35;10.38;;;;;;;17.75;100.00;101303.63;5073838;28;20489;-56
2021/07/14 06:36:03;;;;;;;19.48;10.10;;;;;;;17.77;100.00;101303.28;5073429;28;20056;-57
2021/07/14 06:38:31;;;;;;;18.38;10.63;;;;;;;17.78;100.00;101305.78;5073870;28;20511;-53
2021/07/14 06:41:00;;;;;;;16.13;9.52;;;;;;;17.81;100.00;101312.72;5073806;28;20405;-58
2021/07/14 06:43:41;;;;;;;14.88;9.10;;;;;;;17.83;100.00;101318.84;5072924;28;20044;-55
2021/07/14 06:46:09;;;;;;;16.25;8.88;;;;;;;17.84;100.00;101324.16;5073664;28;20074;-55
2021/07/14 06:48:38;;;;;;;14.77;9.07;;;;;;;17.86;100.00;101327.47;5073520;28;20048;-56
2021/07/14 06:51:07;;;;;;;14.57;9.35;;;;;;;17.86;100.00;101335.94;5073015;28;20076;-51
2021/07/14 06:53:35;;;;;;;15.45;9.07;;;;;;;17.85;100.00;101337.13;5072331;28;20136;-53
2021/07/14 06:56:05;;;;;;;17.27;9.02;;;;;;;17.85;100.00;101339.09;5071676;28;20102;-54
2021/07/14 06:58:36;;;;;;;17.38;9.15;;;;;;;17.87;100.00;101325.50;5072178;28;20136;-58
2021/07/14 07:01:04;;;;;;;14.00;7.68;;;;;;;17.88;100.00;101330.81;5073413;28;20044;-56
2021/07/14 07:03:34;;;;;;;13.20;6.90;;;;;;;17.88;100.00;101324.31;5072821;28;20514;-55
2021/07/14 07:06:03;;;;;;;11.07;7.22;;;;;;;17.88;100.00;101324.31;5073407;28;20501;-55
2021/07/14 07:08:31;;;;;;;13.38;8.45;;;;;;;17.87;100.00;101312.19;5073180;28;20119;-56
2021/07/14 07:10:59;;;;;;;14.80;8.20;;;;;;;17.87;100.00;101319.84;5072714;28;20055;-53
2021/07/14 07:13:28;;;;;;;13.77;8.90;;;;;;;17.87;100.00;101315.03;5073402;28;20485;-55
2021/07/14 07:15:57;;;;;;;11.52;7.90;;;;;;;17.86;100.00;101315.34;5073219;28;20053;-58
2021/07/14 07:18:25;;;;;;;13.00;7.82;;;;;;;17.83;100.00;101307.56;5072615;28;20144;-54
2021/07/14 07:20:56;;;;;;;14.98;8.73;;;;;;;17.84;100.00;101315.69;5073188;28;20039;-50
2021/07/14 07:23:24;;;;;;;15.05;8.80;;;;;;;17.85;100.00;101308.06;5072463;28;20056;-54
2021/07/14 07:25:53;;;;;;;16.25;8.52;;;;;;;17.86;100.00;101295.59;5072551;28;20048;-55
2021/07/14 07:28:26;;;;;;;17.35;9.20;;;;;;;17.86;100.00;101296.44;5073016;28;20048;-51
2021/07/14 07:30:55;;;;;;;16.25;8.70;;;;;;;17.88;100.00;101302.56;5070407;28;20548;-51
2021/07/14 07:33:23;;;;;;;18.42;9.70;;;;;;;17.90;100.00;101299.41;5071921;28;20094;-56
2021/07/14 07:35:51;;;;;;;18.83;10.02;;;;;;;17.93;100.00;101297.91;5071795;28;20522;-60
2021/07/14 07:38:19;;;;;;;19.83;9.18;;;;;;;17.95;100.00;101302.06;5071614;28;20062;-51
2021/07/14 07:40:51;;;;;;;16.45;9.85;;;;;;;18.01;100.00;101306.31;5072160;28;20074;-51
2021/07/14 07:43:20;;;;;;;19.30;9.20;;;;;;;18.04;100.00;101307.66;5072096;28;20048;-59
2021/07/14 07:45:48;;;;;;;16.98;8.95;;;;;;;18.05;100.00;101307.31;5071448;28;20533;-61
2021/07/14 07:48:17;;;;;;;20.25;9.77;;;;;;;18.10;100.00;101309.13;5071631;28;20106;-56
2021/07/14 07:50:45;;;;;;;19.85;8.68;;;;;;;18.14;100.00;101299.63;5071032;28;20053;-55
2021/07/14 07:53:13;;;;;;;14.38;9.00;;;;;;;18.19;100.00;101318.38;5070780;28;20124;-52
2021/07/14 07:55:41;;;;;;;19.77;10.25;;;;;;;18.21;100.00;101328.16;5071813;28;20052;-56
2021/07/14 07:58:09;;;;;;;17.75;9.13;;;;;;;18.22;100.00;101327.00;5071660;28;20083;-55
2021/07/14 08:00:37;;;;;;;15.23;8.70;;;;;;;18.23;100.00;101325.00;5070977;28;20206;-53
2021/07/14 08:03:04;;;;;;;14.07;8.82;;;;;;;18.22;100.00;101329.00;5071548;28;20110;-51
2021/07/14 08:05:34;;;;;;;15.43;9.43;;;;;;;18.20;100.00;101323.69;5071784;28;20718;-55
2021/07/14 08:08:02;;;;;;;17.85;10.38;;;;;;;18.18;100.00;101333.69;5070938;28;20056;-51
2021/07/14 08:10:30;;;;;;;17.83;9.10;;;;;;;18.17;100.00;101332.03;5071385;28;20044;-51
2021/07/14 08:12:58;;;;;;;21.42;9.57;;;;;;;18.19;100.00;101336.16;5071473;28;20057;-54
2021/07/14 08:15:26;;;;;;;17.98;9.55;;;;;;;18.19;100.00;101327.69;5070587;28;20508;-56
2021/07/14 08:17:53;;;;;;;15.07;9.82;;;;;;;18.19;100.00;101338.16;5071711;28;20123;-54
2021/07/14 08:20:23;;;;;;;15.90;9.40;;;;;;;18.17;100.00;101337.69;5071245;28;20550;-49
2021/07/14 08:22:53;;;;;;;21.33;10.13;;;;;;;18.18;100.00;101340.16;5071151;28;20143;-53
2021/07/14 08:25:21;;;;;;;17.60;9.52;;;;;;;18.18;100.00;101337.34;5071756;28;20050;-53
2021/07/14 08:27:48;;;;;;;15.48;8.35;;;;;;;18.20;100.00;101345.44;5070396;28;20128;-53
2021/07/14 08:30:17;;;;;;;21.20;9.43;;;;;;;18.23;100.00;101341.97;5071266;28;20156;-55
2021/07/14 08:32:45;;;;;;;22.95;9.50;;;;;;;18.29;100.00;101331.31;5071162;28;20056;-50
2021/07/14 08:35:15;;;;;;;15.57;8.68;;;;;;;18.31;100.00;101332.63;5068655;28;20460;-56
2021/07/14 08:37:45;;;;;;;17.90;8.45;;;;;;;18.30;100.00;101330.97;5070924;28;20079;-51
2021/07/14 08:40:16;;;;;;;16.67;8.02;;;;;;;18.32;100.00;101341.94;5062871;28;20072;-53
2021/07/14 08:42:45;;;;;;;15.50;7.72;;;;;;;18.32;100.00;101337.09;5070515;28;20056;-53
2021/07/14 08:45:19;;;;;;;12.85;7.28;;;;;;;18.33;100.00;101335.09;5070886;28;20045;-50
2021/07/14 08:47:48;;;;;;;15.20;7.38;;;;;;;18.33;100.00;101335.09;5070976;28;20044;-54
2021/07/14 08:50:19;;;;;;;13.43;7.70;;;;;;;18.35;100.00;101332.78;5070264;28;20045;-51
2021/07/14 08:52:49;;;;;;;21.13;8.23;;;;;;;18.37;100.00;101330.44;5070879;28;20047;-56
2021/07/14 08:55:20;;;;;;;17.23;7.60;;;;;;;18.38;100.00;101326.44;5070888;28;20058;-54
2021/07/14 08:57:48;;;;;;;13.18;6.85;;;;;;;18.40;100.00;101329.72;5070169;28;20139;-55
2021/07/14 09:00:20;;;;;;;15.13;7.38;;;;;;;18.42;100.00;101328.22;5069133;28;20503;-59
2021/07/14 09:02:48;;;;;;;20.60;8.27;;;;;;;18.45;100.00;101333.19;5070055;28;20113;-53
2021/07/14 09:05:16;;;;;;;12.57;6.80;;;;;;;18.51;100.00;101333.84;5070344;28;20044;-51
2021/07/14 09:07:44;;;;;;;15.00;7.63;;;;;;;18.52;100.00;101322.19;5070596;28;20369;-51
2021/07/14 09:10:15;;;;;;;15.05;7.95;;;;;;;18.54;99.74;101325.53;5070081;28;20098;-52
2021/07/14 09:12:46;;;;;;;13.00;7.13;;;;;;;18.56;99.80;101328.00;5070470;28;20458;-52
2021/07/14 09:15:15;;;;;;;17.50;7.40;;;;;;;18.61;99.79;101332.63;5070493;28;20052;-52
2021/07/14 09:17:45;;;;;;;14.43;7.47;;;;;;;18.69;99.67;101320.47;5070132;28;20048;-52
2021/07/14 09:20:16;;;;;;;18.05;7.80;;;;;;;18.75;99.15;101328.41;5070630;28;20144;-53
2021/07/14 09:22:44;;;;;;;15.38;7.30;;;;;;;18.81;99.24;101323.34;5070285;28;20048;-50
2021/07/14 09:25:14;;;;;;;14.13;6.75;;;;;;;18.85;98.53;101325.16;5069948;28;20123;-57
2021/07/14 09:27:55;;;;;;;19.35;7.80;;;;;;;18.98;98.45;101328.09;5070177;28;20044;-49
2021/07/14 09:30:26;;;;;;;13.30;6.72;;;;;;;19.05;98.17;101325.50;5070046;28;20080;-51
2021/07/14 09:32:55;;;;;;;14.90;6.85;;;;;;;19.08;97.37;101322.00;5070112;28;20460;-51
2021/07/14 09:35:37;;;;;;;13.88;7.00;;;;;;;19.11;97.54;101324.97;5068929;28;20136;-49
2021/07/14 09:38:08;;;;;;;10.98;6.47;;;;;;;19.11;97.08;101335.44;5069112;28;20060;-54
2021/07/14 09:40:36;;;;;;;13.20;6.85;;;;;;;19.13;96.69;101322.63;5070045;28;20037;-51
2021/07/14 09:43:09;;;;;;;13.65;6.57;;;;;;;19.18;96.83;101321.59;5068774;28;20044;-55
2021/07/14 09:45:39;;;;;;;13.40;6.57;;;;;;;19.26;96.50;101320.66;5069706;28;20106;-54
2021/07/14 09:48:10;;;;;;;13.75;7.25;;;;;;;19.34;96.41;101324.59;5073107;28;20374;-51
2021/07/14 09:50:40;;;;;;;12.75;7.18;;;;;;;19.39;95.52;101321.53;5074800;28;20053;-55
2021/07/14 09:53:10;;;;;;;15.07;7.53;;;;;;;19.44;95.14;101313.66;5073596;28;20433;-53
2021/07/14 09:55:39;;;;;;;18.50;8.02;;;;;;;19.54;95.28;101315.28;5070316;28;20565;-51
2021/07/14 09:58:10;;;;;;;12.43;6.30;;;;;;;19.65;94.53;101319.31;5068432;28;20143;-55
2021/07/14 10:00:40;;;;;;;13.27;7.25;;;;;;;19.78;94.23;101318.19;5073782;28;20041;-55
2021/07/14 10:03:08;;;;;;;9.85;6.70;;;;;;;19.94;92.98;101312.66;5074038;28;20109;-52
2021/07/14 10:05:35;;;;;;;12.95;7.13;;;;;;;20.12;92.46;101314.09;5073588;28;20056;-54
2021/07/14 10:08:21;;;;;;;13.23;6.85;;;;;;;20.19;91.32;101319.97;5073403;28;20048;-54
2021/07/14 10:10:51;;;;;;;10.02;6.40;;;;;;;20.22;91.16;101322.13;5073772;28;20054;-52
2021/07/14 10:13:22;;;;;;;9.32;6.68;;;;;;;20.27;90.36;101318.22;5073204;28;20070;-52
2021/07/14 10:16:03;;;;;;;8.27;6.55;;;;;;;20.35;89.49;101316.47;5073719;28;20468;-58
2021/07/14 10:18:32;;;;;;;9.10;6.32;;;;;;;20.45;89.63;101308.34;5072261;28;20521;-50
2021/07/14 10:21:04;;;;;;;10.43;6.78;;;;;;;20.60;88.94;101306.78;5071591;28;20045;-53
2021/07/14 10:23:33;;;;;;;13.73;9.43;;;;;;;20.71;88.29;101310.78;5073528;28;20182;-55
2021/07/14 10:26:01;;;;;;;10.40;8.32;;;;;;;20.71;87.93;101324.97;5073443;28;20086;-54
2021/07/14 10:28:31;;;;;;;11.93;8.05;;;;;;;20.64;87.79;101331.25;5072724;28;20405;-57
2021/07/14 10:30:59;;;;;;;10.95;7.68;;;;;;;20.57;88.03;101321.69;5073243;28;20056;-51
2021/07/14 10:33:29;;;;;;;12.30;8.43;;;;;;;20.53;88.19;101321.56;5071774;28;20135;-54
2021/07/14 10:35:59;;;;;;;14.00;7.88;;;;;;;20.53;88.14;101315.06;5072600;28;20235;-56
2021/07/14 10:38:29;;;;;;;12.30;8.50;;;;;;;20.53;88.26;101309.41;5073336;28;20116;-56
2021/07/14 10:41:01;;;;;;;14.93;9.18;;;;;;;20.53;88.06;101312.25;5072961;28;20044;-56
2021/07/14 10:43:31;;;;;;;12.68;8.13;;;;;;;20.49;87.99;101319.78;5073164;28;20044;-57
2021/07/14 10:46:20;;;;;;;9.70;6.82;;;;;;;20.43;88.26;101319.19;5064739;28;20059;-56
2021/07/14 10:48:49;;;;;;;12.30;7.70;;;;;;;20.51;88.32;101328.78;5072644;28;20066;-53
2021/07/14 10:51:17;;;;;;;11.63;8.20;;;;;;;20.52;88.25;101324.75;5073058;28;20040;-53
2021/07/14 10:53:49;;;;;;;13.63;7.97;;;;;;;20.52;87.91;101336.09;5072824;28;20087;-52
2021/07/14 10:56:20;;;;;;;12.18;7.53;;;;;;;20.56;87.93;101325.72;5072444;28;20461;-55
2021/07/14 10:58:52;;;;;;;13.60;7.50;;;;;;;20.55;87.70;101333.38;5071949;28;20048;-56
2021/07/14 11:01:44;;;;;;;9.77;6.60;;;;;;;20.56;87.20;101337.88;5072978;28;20037;-53
2021/07/14 11:04:46;;;;;;;10.15;6.70;;;;;;;20.58;87.17;101320.50;5052384;28;20493;-53
2021/07/14 11:07:14;;;;;;;12.97;6.63;;;;;;;20.63;87.72;101323.09;5064987;28;20525;-52
2021/07/14 11:09:43;;;;;;;13.32;7.22;;;;;;;20.70;87.43;101326.16;5072122;28;20048;-52
2021/07/14 11:12:13;;;;;;;14.52;9.13;;;;;;;20.78;87.44;101330.06;5072563;28;20040;-57
2021/07/14 11:14:49;;;;;;;12.77;7.75;;;;;;;20.82;87.05;101328.13;5072361;28;20052;-55
2021/07/14 11:17:29;;;;;;;13.18;7.35;;;;;;;20.82;86.88;101320.47;5072311;28;20046;-51
2021/07/14 11:20:06;;;;;;;16.55;8.85;;;;;;;20.86;86.71;101329.91;5072232;28;20140;-52
2021/07/14 11:22:39;;;;;;;15.57;8.00;;;;;;;20.84;86.54;101328.59;5072511;28;20127;-53
2021/07/14 11:25:08;;;;;;;10.90;7.10;;;;;;;20.80;86.47;101337.00;5071791;28;20098;-56
2021/07/14 11:27:55;;;;;;;10.45;6.93;;;;;;;20.77;85.83;101336.91;5070851;28;20045;-57